Portada
METAR-TAF:

METAR-TAF

Aeropuertos :

Malé, Hulhule Island, Maldivas

Aeropuerto Internacional de Malé

latitud: 04-12N, longitud: 073-32E, altitud: 2 m

Observación

El informe se hizo hace 1 hora y 9 minutos, a las 12:00 UTC
Viento 5 kt del oeste-noroeste
Temperatura 31°C
Humedad 71%
Presión 1009 hPa
Visibilidad 10 km o más
Escasas nubes a una altura de 1800 ft

METAR: VRMM 261200Z 30005KT 9999 FEW018 31/25 Q1009 NOSIG

Hora: 18:09 (13:09 UTC)

Pronóstico

El informe se hizo hace 8 horas y 9 minutos, a las 05:00 UTC
Pronóstico válido del 26 a las 06 UTC al 27 a las 12 UTC
Viento 5 kt del noroeste
Visibilidad 10 km o más
Escasas nubes a una altura de 1800 ft

TAF: VRMM 260500Z 2606/2712 31005KT 9999 FEW018

Observaciones y pronósticos meteorológicos de más de 4000 aeropuertos (mensajes METAR y TAF).

Los puntos amarillos y rojos representan las estaciones disponibles.

Ponga el ratón en el punto deseado para ver el nombre de la estación.

Haga clic para ver las observaciones y los pronósticos meteorológicos.

Para cambiar el mapa : haga clic en los botones verdes con una cruz de color negro para hacer un zoom, en el botón verde con un guión para alejar o en las flechas verdes para mapas adyacentes.


METAR-TAF: